sensor_id;sensor_type;location;lat;lon;timestamp;P1;durP1;ratioP1;P2;durP2;ratioP2
4365;SDS011;2196;47.422;9.656;2023-04-23T00:00:24;5.70;;;5.23;;
4365;SDS011;2196;47.422;9.656;2023-04-23T00:02:52;5.47;;;5.07;;
4365;SDS011;2196;47.422;9.656;2023-04-23T00:05:21;6.57;;;5.90;;
4365;SDS011;2196;47.422;9.656;2023-04-23T00:07:53;6.43;;;5.63;;
4365;SDS011;2196;47.422;9.656;2023-04-23T00:10:21;6.10;;;5.50;;
4365;SDS011;2196;47.422;9.656;2023-04-23T00:12:49;5.87;;;5.47;;
4365;SDS011;2196;47.422;9.656;2023-04-23T00:15:16;6.23;;;5.60;;
4365;SDS011;2196;47.422;9.656;2023-04-23T00:17:46;9.60;;;6.90;;
4365;SDS011;2196;47.422;9.656;2023-04-23T00:20:13;6.10;;;5.33;;
4365;SDS011;2196;47.422;9.656;2023-04-23T00:22:42;6.70;;;6.20;;
4365;SDS011;2196;47.422;9.656;2023-04-23T00:25:09;6.33;;;5.83;;
4365;SDS011;2196;47.422;9.656;2023-04-23T00:27:36;6.97;;;6.47;;
4365;SDS011;2196;47.422;9.656;2023-04-23T00:30:03;7.03;;;6.43;;
4365;SDS011;2196;47.422;9.656;2023-04-23T00:32:33;7.07;;;6.50;;
4365;SDS011;2196;47.422;9.656;2023-04-23T00:35:00;8.83;;;6.67;;
4365;SDS011;2196;47.422;9.656;2023-04-23T00:37:27;7.03;;;6.37;;
4365;SDS011;2196;47.422;9.656;2023-04-23T00:39:55;6.33;;;5.83;;
4365;SDS011;2196;47.422;9.656;2023-04-23T00:42:22;6.53;;;5.93;;
4365;SDS011;2196;47.422;9.656;2023-04-23T00:44:49;6.40;;;5.90;;
4365;SDS011;2196;47.422;9.656;2023-04-23T00:47:17;6.53;;;6.13;;
4365;SDS011;2196;47.422;9.656;2023-04-23T00:49:45;6.47;;;5.87;;
4365;SDS011;2196;47.422;9.656;2023-04-23T00:52:12;6.23;;;5.73;;
4365;SDS011;2196;47.422;9.656;2023-04-23T00:54:39;5.53;;;5.13;;
4365;SDS011;2196;47.422;9.656;2023-04-23T00:57:08;7.83;;;5.77;;
4365;SDS011;2196;47.422;9.656;2023-04-23T00:59:35;6.37;;;5.77;;
4365;SDS011;2196;47.422;9.656;2023-04-23T01:02:02;6.37;;;5.63;;
4365;SDS011;2196;47.422;9.656;2023-04-23T01:04:29;6.13;;;5.73;;
4365;SDS011;2196;47.422;9.656;2023-04-23T01:06:58;5.40;;;4.97;;
4365;SDS011;2196;47.422;9.656;2023-04-23T01:09:25;7.27;;;6.60;;
4365;SDS011;2196;47.422;9.656;2023-04-23T01:11:52;6.40;;;5.77;;
4365;SDS011;2196;47.422;9.656;2023-04-23T01:14:21;6.77;;;6.27;;
4365;SDS011;2196;47.422;9.656;2023-04-23T01:16:48;5.93;;;5.53;;
4365;SDS011;2196;47.422;9.656;2023-04-23T01:19:16;6.57;;;5.97;;
4365;SDS011;2196;47.422;9.656;2023-04-23T01:21:44;6.00;;;5.50;;
4365;SDS011;2196;47.422;9.656;2023-04-23T01:24:12;5.63;;;5.33;;
4365;SDS011;2196;47.422;9.656;2023-04-23T01:26:39;6.53;;;5.70;;
4365;SDS011;2196;47.422;9.656;2023-04-23T01:29:06;6.23;;;5.70;;
4365;SDS011;2196;47.422;9.656;2023-04-23T01:31:34;6.63;;;5.77;;
4365;SDS011;2196;47.422;9.656;2023-04-23T01:34:01;5.70;;;5.20;;
4365;SDS011;2196;47.422;9.656;2023-04-23T01:36:28;5.37;;;4.90;;
4365;SDS011;2196;47.422;9.656;2023-04-23T01:38:56;6.90;;;5.97;;
4365;SDS011;2196;47.422;9.656;2023-04-23T01:41:24;6.50;;;5.90;;
4365;SDS011;2196;47.422;9.656;2023-04-23T01:43:52;5.33;;;4.83;;
4365;SDS011;2196;47.422;9.656;2023-04-23T01:46:19;5.63;;;5.10;;
4365;SDS011;2196;47.422;9.656;2023-04-23T01:48:46;5.37;;;4.97;;
4365;SDS011;2196;47.422;9.656;2023-04-23T01:51:13;6.83;;;6.03;;
4365;SDS011;2196;47.422;9.656;2023-04-23T01:53:40;5.70;;;5.20;;
4365;SDS011;2196;47.422;9.656;2023-04-23T01:56:07;6.37;;;5.77;;
4365;SDS011;2196;47.422;9.656;2023-04-23T01:58:37;5.40;;;4.93;;
4365;SDS011;2196;47.422;9.656;2023-04-23T02:01:04;5.27;;;4.53;;
4365;SDS011;2196;47.422;9.656;2023-04-23T02:03:31;5.57;;;5.10;;
4365;SDS011;2196;47.422;9.656;2023-04-23T02:05:59;5.97;;;5.00;;
4365;SDS011;2196;47.422;9.656;2023-04-23T02:08:26;5.20;;;4.73;;
4365;SDS011;2196;47.422;9.656;2023-04-23T02:10:53;6.87;;;5.10;;
4365;SDS011;2196;47.422;9.656;2023-04-23T02:13:20;6.43;;;4.80;;
4365;SDS011;2196;47.422;9.656;2023-04-23T02:15:48;7.30;;;6.60;;
4365;SDS011;2196;47.422;9.656;2023-04-23T02:18:15;8.23;;;5.93;;
4365;SDS011;2196;47.422;9.656;2023-04-23T02:20:42;6.33;;;5.83;;
4365;SDS011;2196;47.422;9.656;2023-04-23T02:23:09;5.00;;;4.63;;
4365;SDS011;2196;47.422;9.656;2023-04-23T02:25:37;7.20;;;6.60;;
4365;SDS011;2196;47.422;9.656;2023-04-23T02:28:04;5.60;;;5.20;;
4365;SDS011;2196;47.422;9.656;2023-04-23T02:30:32;5.17;;;4.70;;
4365;SDS011;2196;47.422;9.656;2023-04-23T02:33:01;4.33;;;4.07;;
4365;SDS011;2196;47.422;9.656;2023-04-23T02:35:29;5.30;;;4.73;;
4365;SDS011;2196;47.422;9.656;2023-04-23T02:37:56;4.90;;;4.60;;
4365;SDS011;2196;47.422;9.656;2023-04-23T02:40:23;5.27;;;4.77;;
4365;SDS011;2196;47.422;9.656;2023-04-23T02:42:50;5.47;;;4.97;;
4365;SDS011;2196;47.422;9.656;2023-04-23T02:45:17;4.83;;;4.47;;
4365;SDS011;2196;47.422;9.656;2023-04-23T02:47:44;6.17;;;5.57;;
4365;SDS011;2196;47.422;9.656;2023-04-23T02:50:12;4.90;;;4.37;;
4365;SDS011;2196;47.422;9.656;2023-04-23T02:52:40;5.47;;;4.83;;
4365;SDS011;2196;47.422;9.656;2023-04-23T02:55:07;4.83;;;4.53;;
4365;SDS011;2196;47.422;9.656;2023-04-23T02:57:35;5.90;;;5.40;;
4365;SDS011;2196;47.422;9.656;2023-04-23T03:00:02;4.93;;;4.53;;
4365;SDS011;2196;47.422;9.656;2023-04-23T03:02:31;5.43;;;5.00;;
4365;SDS011;2196;47.422;9.656;2023-04-23T03:04:58;5.87;;;5.37;;
4365;SDS011;2196;47.422;9.656;2023-04-23T03:07:27;7.40;;;6.73;;
4365;SDS011;2196;47.422;9.656;2023-04-23T03:09:54;5.80;;;5.30;;
4365;SDS011;2196;47.422;9.656;2023-04-23T03:12:20;7.30;;;6.67;;
4365;SDS011;2196;47.422;9.656;2023-04-23T03:14:47;6.53;;;5.93;;
4365;SDS011;2196;47.422;9.656;2023-04-23T03:17:14;6.30;;;5.80;;
4365;SDS011;2196;47.422;9.656;2023-04-23T03:19:41;8.70;;;6.20;;
4365;SDS011;2196;47.422;9.656;2023-04-23T03:22:08;6.50;;;6.10;;
4365;SDS011;2196;47.422;9.656;2023-04-23T03:24:37;7.47;;;6.77;;
4365;SDS011;2196;47.422;9.656;2023-04-23T03:27:04;7.37;;;5.80;;
4365;SDS011;2196;47.422;9.656;2023-04-23T03:29:31;6.30;;;5.80;;
4365;SDS011;2196;47.422;9.656;2023-04-23T03:31:58;5.97;;;5.57;;
4365;SDS011;2196;47.422;9.656;2023-04-23T03:34:25;5.50;;;5.20;;
4365;SDS011;2196;47.422;9.656;2023-04-23T03:36:52;4.83;;;4.43;;
4365;SDS011;2196;47.422;9.656;2023-04-23T03:39:18;5.53;;;5.00;;
4365;SDS011;2196;47.422;9.656;2023-04-23T03:41:47;6.30;;;5.27;;
4365;SDS011;2196;47.422;9.656;2023-04-23T03:44:14;5.37;;;4.73;;
4365;SDS011;2196;47.422;9.656;2023-04-23T03:46:41;5.07;;;4.10;;
4365;SDS011;2196;47.422;9.656;2023-04-23T03:49:08;4.93;;;4.43;;
4365;SDS011;2196;47.422;9.656;2023-04-23T03:51:35;7.03;;;4.23;;
4365;SDS011;2196;47.422;9.656;2023-04-23T03:54:02;3.73;;;3.47;;
4365;SDS011;2196;47.422;9.656;2023-04-23T03:56:29;4.57;;;4.23;;
4365;SDS011;2196;47.422;9.656;2023-04-23T03:58:58;3.97;;;3.67;;
4365;SDS011;2196;47.422;9.656;2023-04-23T04:01:25;4.30;;;3.77;;
4365;SDS011;2196;47.422;9.656;2023-04-23T04:03:52;4.57;;;3.83;;
4365;SDS011;2196;47.422;9.656;2023-04-23T04:06:19;6.73;;;3.50;;
4365;SDS011;2196;47.422;9.656;2023-04-23T04:08:46;4.83;;;4.53;;
4365;SDS011;2196;47.422;9.656;2023-04-23T04:11:13;4.20;;;3.83;;
4365;SDS011;2196;47.422;9.656;2023-04-23T04:13:40;5.97;;;5.37;;
4365;SDS011;2196;47.422;9.656;2023-04-23T04:16:08;7.10;;;6.37;;
4365;SDS011;2196;47.422;9.656;2023-04-23T04:18:35;7.57;;;6.87;;
4365;SDS011;2196;47.422;9.656;2023-04-23T04:21:03;5.70;;;5.30;;
4365;SDS011;2196;47.422;9.656;2023-04-23T04:23:30;5.27;;;4.77;;
4365;SDS011;2196;47.422;9.656;2023-04-23T04:25:57;6.43;;;3.90;;
4365;SDS011;2196;47.422;9.656;2023-04-23T04:28:24;4.27;;;3.87;;
4365;SDS011;2196;47.422;9.656;2023-04-23T04:30:51;2.77;;;2.67;;
4365;SDS011;2196;47.422;9.656;2023-04-23T04:33:22;3.67;;;3.47;;
4365;SDS011;2196;47.422;9.656;2023-04-23T04:35:50;5.20;;;3.47;;
4365;SDS011;2196;47.422;9.656;2023-04-23T04:38:17;3.60;;;3.20;;
4365;SDS011;2196;47.422;9.656;2023-04-23T04:40:44;4.93;;;3.63;;
4365;SDS011;2196;47.422;9.656;2023-04-23T04:43:10;5.03;;;3.37;;
4365;SDS011;2196;47.422;9.656;2023-04-23T04:45:37;3.17;;;3.07;;
4365;SDS011;2196;47.422;9.656;2023-04-23T04:48:04;3.40;;;3.20;;
4365;SDS011;2196;47.422;9.656;2023-04-23T04:50:33;3.00;;;2.80;;
4365;SDS011;2196;47.422;9.656;2023-04-23T04:53:00;2.87;;;2.57;;
4365;SDS011;2196;47.422;9.656;2023-04-23T04:55:27;4.20;;;3.53;;
4365;SDS011;2196;47.422;9.656;2023-04-23T04:57:54;2.87;;;2.67;;
4365;SDS011;2196;47.422;9.656;2023-04-23T05:00:22;2.87;;;2.60;;
4365;SDS011;2196;47.422;9.656;2023-04-23T05:02:53;2.37;;;2.27;;
4365;SDS011;2196;47.422;9.656;2023-04-23T05:05:21;2.80;;;2.53;;
4365;SDS011;2196;47.422;9.656;2023-04-23T05:07:50;2.30;;;2.20;;
4365;SDS011;2196;47.422;9.656;2023-04-23T05:10:18;2.00;;;1.90;;
4365;SDS011;2196;47.422;9.656;2023-04-23T05:12:46;7.00;;;3.63;;
4365;SDS011;2196;47.422;9.656;2023-04-23T05:15:13;2.37;;;2.27;;
4365;SDS011;2196;47.422;9.656;2023-04-23T05:17:40;1.90;;;1.80;;
4365;SDS011;2196;47.422;9.656;2023-04-23T05:20:08;2.40;;;2.20;;
4365;SDS011;2196;47.422;9.656;2023-04-23T05:22:36;3.67;;;1.40;;
4365;SDS011;2196;47.422;9.656;2023-04-23T05:25:05;1.20;;;1.20;;
4365;SDS011;2196;47.422;9.656;2023-04-23T05:27:32;3.03;;;1.90;;
4365;SDS011;2196;47.422;9.656;2023-04-23T05:29:59;2.30;;;2.10;;
4365;SDS011;2196;47.422;9.656;2023-04-23T05:32:27;2.00;;;1.70;;
4365;SDS011;2196;47.422;9.656;2023-04-23T05:34:54;2.27;;;1.70;;
4365;SDS011;2196;47.422;9.656;2023-04-23T05:37:21;2.63;;;1.53;;
4365;SDS011;2196;47.422;9.656;2023-04-23T05:39:48;3.10;;;1.77;;
4365;SDS011;2196;47.422;9.656;2023-04-23T05:42:16;1.53;;;1.43;;
4365;SDS011;2196;47.422;9.656;2023-04-23T05:44:46;1.80;;;1.70;;
4365;SDS011;2196;47.422;9.656;2023-04-23T05:47:13;1.77;;;1.70;;
4365;SDS011;2196;47.422;9.656;2023-04-23T05:49:40;1.80;;;1.70;;
4365;SDS011;2196;47.422;9.656;2023-04-23T05:52:07;2.20;;;2.10;;
4365;SDS011;2196;47.422;9.656;2023-04-23T05:54:34;3.90;;;1.43;;
4365;SDS011;2196;47.422;9.656;2023-04-23T05:57:01;1.50;;;1.40;;
4365;SDS011;2196;47.422;9.656;2023-04-23T05:59:30;1.70;;;1.60;;
4365;SDS011;2196;47.422;9.656;2023-04-23T06:01:57;1.97;;;1.90;;
4365;SDS011;2196;47.422;9.656;2023-04-23T06:04:24;2.73;;;2.60;;
4365;SDS011;2196;47.422;9.656;2023-04-23T06:06:52;2.67;;;2.27;;
4365;SDS011;2196;47.422;9.656;2023-04-23T06:09:19;2.33;;;2.23;;
4365;SDS011;2196;47.422;9.656;2023-04-23T06:11:46;2.50;;;2.40;;
4365;SDS011;2196;47.422;9.656;2023-04-23T06:14:14;3.27;;;2.97;;
4365;SDS011;2196;47.422;9.656;2023-04-23T06:16:43;3.33;;;3.10;;
4365;SDS011;2196;47.422;9.656;2023-04-23T06:19:10;2.57;;;2.47;;
4365;SDS011;2196;47.422;9.656;2023-04-23T06:21:37;2.60;;;2.50;;
4365;SDS011;2196;47.422;9.656;2023-04-23T06:24:05;3.60;;;2.90;;
4365;SDS011;2196;47.422;9.656;2023-04-23T06:26:32;2.43;;;2.33;;
4365;SDS011;2196;47.422;9.656;2023-04-23T06:28:59;3.80;;;3.53;;
4365;SDS011;2196;47.422;9.656;2023-04-23T06:31:26;4.97;;;4.77;;
4365;SDS011;2196;47.422;9.656;2023-04-23T06:33:55;4.80;;;4.60;;
4365;SDS011;2196;47.422;9.656;2023-04-23T06:36:23;3.53;;;3.40;;
4365;SDS011;2196;47.422;9.656;2023-04-23T06:38:50;3.17;;;2.97;;
4365;SDS011;2196;47.422;9.656;2023-04-23T06:41:17;3.23;;;3.03;;
4365;SDS011;2196;47.422;9.656;2023-04-23T06:43:46;6.23;;;4.53;;
4365;SDS011;2196;47.422;9.656;2023-04-23T06:46:13;2.63;;;2.43;;
4365;SDS011;2196;47.422;9.656;2023-04-23T06:48:40;3.10;;;2.87;;
4365;SDS011;2196;47.422;9.656;2023-04-23T06:51:09;3.33;;;3.03;;
4365;SDS011;2196;47.422;9.656;2023-04-23T06:53:36;12.40;;;8.00;;
4365;SDS011;2196;47.422;9.656;2023-04-23T06:56:04;5.07;;;4.57;;
4365;SDS011;2196;47.422;9.656;2023-04-23T06:58:31;6.60;;;4.80;;
4365;SDS011;2196;47.422;9.656;2023-04-23T07:00:58;3.70;;;3.50;;
4365;SDS011;2196;47.422;9.656;2023-04-23T07:03:28;3.00;;;2.77;;
4365;SDS011;2196;47.422;9.656;2023-04-23T07:05:55;3.30;;;2.67;;
4365;SDS011;2196;47.422;9.656;2023-04-23T07:08:24;3.83;;;3.53;;
4365;SDS011;2196;47.422;9.656;2023-04-23T07:10:51;3.93;;;3.53;;
4365;SDS011;2196;47.422;9.656;2023-04-23T07:13:18;4.10;;;3.30;;
4365;SDS011;2196;47.422;9.656;2023-04-23T07:15:45;1.93;;;1.83;;
4365;SDS011;2196;47.422;9.656;2023-04-23T07:18:13;1.87;;;1.77;;
4365;SDS011;2196;47.422;9.656;2023-04-23T07:20:40;4.50;;;2.27;;
4365;SDS011;2196;47.422;9.656;2023-04-23T07:23:07;3.03;;;2.30;;
4365;SDS011;2196;47.422;9.656;2023-04-23T07:25:35;3.00;;;2.80;;
4365;SDS011;2196;47.422;9.656;2023-04-23T07:28:02;1.90;;;1.80;;
4365;SDS011;2196;47.422;9.656;2023-04-23T07:30:29;1.30;;;1.30;;
4365;SDS011;2196;47.422;9.656;2023-04-23T07:32:57;2.17;;;2.07;;
4365;SDS011;2196;47.422;9.656;2023-04-23T07:35:23;1.63;;;1.53;;
4365;SDS011;2196;47.422;9.656;2023-04-23T07:37:52;1.37;;;1.37;;
4365;SDS011;2196;47.422;9.656;2023-04-23T07:40:22;1.17;;;1.17;;
4365;SDS011;2196;47.422;9.656;2023-04-23T07:42:51;1.17;;;1.13;;
4365;SDS011;2196;47.422;9.656;2023-04-23T07:45:18;1.20;;;1.20;;
4365;SDS011;2196;47.422;9.656;2023-04-23T07:47:45;1.10;;;1.10;;
4365;SDS011;2196;47.422;9.656;2023-04-23T07:50:12;1.63;;;1.53;;
4365;SDS011;2196;47.422;9.656;2023-04-23T07:52:40;1.43;;;1.37;;
4365;SDS011;2196;47.422;9.656;2023-04-23T07:55:07;1.37;;;1.37;;
4365;SDS011;2196;47.422;9.656;2023-04-23T07:57:34;1.40;;;1.40;;
4365;SDS011;2196;47.422;9.656;2023-04-23T08:00:03;1.70;;;1.57;;
4365;SDS011;2196;47.422;9.656;2023-04-23T08:02:33;1.47;;;1.47;;
4365;SDS011;2196;47.422;9.656;2023-04-23T08:05:00;2.47;;;1.40;;
4365;SDS011;2196;47.422;9.656;2023-04-23T08:07:27;1.83;;;1.60;;
4365;SDS011;2196;47.422;9.656;2023-04-23T08:09:55;2.73;;;1.37;;
4365;SDS011;2196;47.422;9.656;2023-04-23T08:12:26;2.50;;;1.57;;
4365;SDS011;2196;47.422;9.656;2023-04-23T08:14:54;2.07;;;1.97;;
4365;SDS011;2196;47.422;9.656;2023-04-23T08:17:25;1.77;;;1.67;;
4365;SDS011;2196;47.422;9.656;2023-04-23T08:19:52;3.13;;;2.23;;
4365;SDS011;2196;47.422;9.656;2023-04-23T08:22:22;1.87;;;1.77;;
4365;SDS011;2196;47.422;9.656;2023-04-23T08:24:50;1.57;;;1.47;;
4365;SDS011;2196;47.422;9.656;2023-04-23T08:27:17;1.53;;;1.53;;
4365;SDS011;2196;47.422;9.656;2023-04-23T08:29:46;1.17;;;1.07;;
4365;SDS011;2196;47.422;9.656;2023-04-23T08:32:13;2.77;;;1.27;;
4365;SDS011;2196;47.422;9.656;2023-04-23T08:34:42;1.73;;;1.60;;
4365;SDS011;2196;47.422;9.656;2023-04-23T08:37:09;1.90;;;1.67;;
4365;SDS011;2196;47.422;9.656;2023-04-23T08:39:36;1.80;;;1.73;;
4365;SDS011;2196;47.422;9.656;2023-04-23T08:42:04;2.63;;;1.50;;
4365;SDS011;2196;47.422;9.656;2023-04-23T08:44:37;1.30;;;1.20;;
4365;SDS011;2196;47.422;9.656;2023-04-23T08:47:06;2.27;;;1.60;;
4365;SDS011;2196;47.422;9.656;2023-04-23T08:49:36;2.40;;;1.50;;
4365;SDS011;2196;47.422;9.656;2023-04-23T08:52:14;2.60;;;1.20;;
4365;SDS011;2196;47.422;9.656;2023-04-23T08:54:44;1.00;;;1.00;;
4365;SDS011;2196;47.422;9.656;2023-04-23T08:57:15;1.27;;;1.20;;
4365;SDS011;2196;47.422;9.656;2023-04-23T08:59:45;1.27;;;1.25;;
4365;SDS011;2196;47.422;9.656;2023-04-23T09:02:12;1.40;;;1.30;;
4365;SDS011;2196;47.422;9.656;2023-04-23T09:04:43;1.13;;;1.13;;
4365;SDS011;2196;47.422;9.656;2023-04-23T09:07:11;1.30;;;1.30;;
4365;SDS011;2196;47.422;9.656;2023-04-23T09:09:39;2.63;;;1.03;;
4365;SDS011;2196;47.422;9.656;2023-04-23T09:12:07;1.23;;;1.23;;
4365;SDS011;2196;47.422;9.656;2023-04-23T09:14:35;1.37;;;1.37;;
4365;SDS011;2196;47.422;9.656;2023-04-23T09:17:02;1.20;;;1.10;;
4365;SDS011;2196;47.422;9.656;2023-04-23T09:19:29;0.90;;;0.90;;
4365;SDS011;2196;47.422;9.656;2023-04-23T09:21:58;0.80;;;0.80;;
4365;SDS011;2196;47.422;9.656;2023-04-23T09:24:26;0.77;;;0.77;;
4365;SDS011;2196;47.422;9.656;2023-04-23T09:26:55;1.30;;;1.23;;
4365;SDS011;2196;47.422;9.656;2023-04-23T09:29:23;2.50;;;1.33;;
4365;SDS011;2196;47.422;9.656;2023-04-23T09:31:51;1.20;;;1.20;;
4365;SDS011;2196;47.422;9.656;2023-04-23T09:34:20;1.50;;;1.30;;
4365;SDS011;2196;47.422;9.656;2023-04-23T09:36:48;0.60;;;0.60;;
4365;SDS011;2196;47.422;9.656;2023-04-23T09:39:18;1.00;;;1.00;;
4365;SDS011;2196;47.422;9.656;2023-04-23T09:41:47;1.43;;;1.40;;
4365;SDS011;2196;47.422;9.656;2023-04-23T09:44:16;1.40;;;1.40;;
4365;SDS011;2196;47.422;9.656;2023-04-23T09:46:44;1.23;;;0.97;;
4365;SDS011;2196;47.422;9.656;2023-04-23T09:49:11;1.20;;;1.20;;
4365;SDS011;2196;47.422;9.656;2023-04-23T09:51:39;1.80;;;1.70;;
4365;SDS011;2196;47.422;9.656;2023-04-23T09:54:11;0.80;;;0.80;;
4365;SDS011;2196;47.422;9.656;2023-04-23T09:56:40;0.90;;;0.90;;
4365;SDS011;2196;47.422;9.656;2023-04-23T09:59:21;0.73;;;0.73;;
4365;SDS011;2196;47.422;9.656;2023-04-23T10:01:48;1.00;;;0.97;;
4365;SDS011;2196;47.422;9.656;2023-04-23T10:04:17;1.23;;;0.90;;
4365;SDS011;2196;47.422;9.656;2023-04-23T10:06:47;1.13;;;1.03;;
4365;SDS011;2196;47.422;9.656;2023-04-23T10:09:18;0.70;;;0.70;;
4365;SDS011;2196;47.422;9.656;2023-04-23T10:11:51;1.37;;;0.63;;
4365;SDS011;2196;47.422;9.656;2023-04-23T10:14:19;0.83;;;0.83;;
4365;SDS011;2196;47.422;9.656;2023-04-23T10:16:47;1.23;;;0.80;;
4365;SDS011;2196;47.422;9.656;2023-04-23T10:19:17;0.87;;;0.87;;
4365;SDS011;2196;47.422;9.656;2023-04-23T10:21:47;0.70;;;0.70;;
4365;SDS011;2196;47.422;9.656;2023-04-23T10:24:18;0.63;;;0.63;;
4365;SDS011;2196;47.422;9.656;2023-04-23T10:26:48;0.87;;;0.87;;
4365;SDS011;2196;47.422;9.656;2023-04-23T10:29:23;0.50;;;0.50;;
4365;SDS011;2196;47.422;9.656;2023-04-23T10:31:52;1.60;;;1.03;;
4365;SDS011;2196;47.422;9.656;2023-04-23T10:34:20;0.80;;;0.80;;
4365;SDS011;2196;47.422;9.656;2023-04-23T10:36:49;0.50;;;0.50;;
4365;SDS011;2196;47.422;9.656;2023-04-23T10:39:17;0.97;;;0.97;;
4365;SDS011;2196;47.422;9.656;2023-04-23T10:41:45;0.40;;;0.40;;
4365;SDS011;2196;47.422;9.656;2023-04-23T10:44:15;0.97;;;0.50;;
4365;SDS011;2196;47.422;9.656;2023-04-23T10:49:28;0.93;;;0.40;;
4365;SDS011;2196;47.422;9.656;2023-04-23T10:51:57;0.90;;;0.40;;
4365;SDS011;2196;47.422;9.656;2023-04-23T10:54:29;0.87;;;0.50;;
4365;SDS011;2196;47.422;9.656;2023-04-23T10:56:57;0.87;;;0.70;;
4365;SDS011;2196;47.422;9.656;2023-04-23T10:59:29;2.83;;;0.40;;
4365;SDS011;2196;47.422;9.656;2023-04-23T11:01:57;0.60;;;0.60;;
4365;SDS011;2196;47.422;9.656;2023-04-23T11:04:31;0.60;;;0.50;;
4365;SDS011;2196;47.422;9.656;2023-04-23T11:07:03;0.40;;;0.40;;
4365;SDS011;2196;47.422;9.656;2023-04-23T11:09:35;0.97;;;0.30;;
4365;SDS011;2196;47.422;9.656;2023-04-23T11:12:07;0.30;;;0.30;;
4365;SDS011;2196;47.422;9.656;2023-04-23T11:14:41;0.67;;;0.40;;
4365;SDS011;2196;47.422;9.656;2023-04-23T11:17:12;1.10;;;1.00;;
4365;SDS011;2196;47.422;9.656;2023-04-23T11:19:40;0.33;;;0.33;;
4365;SDS011;2196;47.422;9.656;2023-04-23T11:22:11;0.50;;;0.50;;
4365;SDS011;2196;47.422;9.656;2023-04-23T11:24:41;0.40;;;0.40;;
4365;SDS011;2196;47.422;9.656;2023-04-23T11:27:10;0.30;;;0.30;;
4365;SDS011;2196;47.422;9.656;2023-04-23T11:29:40;0.40;;;0.40;;
4365;SDS011;2196;47.422;9.656;2023-04-23T11:32:08;1.03;;;0.50;;
4365;SDS011;2196;47.422;9.656;2023-04-23T11:34:38;0.40;;;0.40;;
4365;SDS011;2196;47.422;9.656;2023-04-23T11:37:08;0.80;;;0.70;;
4365;SDS011;2196;47.422;9.656;2023-04-23T11:39:36;0.43;;;0.43;;
4365;SDS011;2196;47.422;9.656;2023-04-23T11:42:07;0.87;;;0.50;;
4365;SDS011;2196;47.422;9.656;2023-04-23T11:44:36;2.03;;;1.43;;
4365;SDS011;2196;47.422;9.656;2023-04-23T11:47:05;0.40;;;0.40;;
4365;SDS011;2196;47.422;9.656;2023-04-23T11:49:35;0.80;;;0.80;;
4365;SDS011;2196;47.422;9.656;2023-04-23T11:52:03;1.37;;;1.00;;
4365;SDS011;2196;47.422;9.656;2023-04-23T11:54:30;1.10;;;1.10;;
4365;SDS011;2196;47.422;9.656;2023-04-23T11:56:57;0.60;;;0.50;;
4365;SDS011;2196;47.422;9.656;2023-04-23T11:59:24;0.63;;;0.60;;
4365;SDS011;2196;47.422;9.656;2023-04-23T12:01:52;0.57;;;0.57;;
4365;SDS011;2196;47.422;9.656;2023-04-23T12:04:22;0.83;;;0.70;;
4365;SDS011;2196;47.422;9.656;2023-04-23T12:06:51;0.70;;;0.70;;
4365;SDS011;2196;47.422;9.656;2023-04-23T12:09:20;0.50;;;0.50;;
4365;SDS011;2196;47.422;9.656;2023-04-23T12:11:48;0.60;;;0.60;;
4365;SDS011;2196;47.422;9.656;2023-04-23T12:14:16;0.60;;;0.60;;
4365;SDS011;2196;47.422;9.656;2023-04-23T12:16:48;0.70;;;0.70;;
4365;SDS011;2196;47.422;9.656;2023-04-23T12:19:16;0.50;;;0.50;;
4365;SDS011;2196;47.422;9.656;2023-04-23T12:21:52;0.93;;;0.70;;
4365;SDS011;2196;47.422;9.656;2023-04-23T12:24:21;0.60;;;0.60;;
4365;SDS011;2196;47.422;9.656;2023-04-23T12:26:49;1.27;;;0.60;;
4365;SDS011;2196;47.422;9.656;2023-04-23T12:29:18;1.47;;;1.27;;
4365;SDS011;2196;47.422;9.656;2023-04-23T12:31:46;0.80;;;0.80;;
4365;SDS011;2196;47.422;9.656;2023-04-23T12:34:13;1.03;;;0.93;;
4365;SDS011;2196;47.422;9.656;2023-04-23T12:36:43;0.73;;;0.60;;
4365;SDS011;2196;47.422;9.656;2023-04-23T12:39:23;0.70;;;0.70;;
4365;SDS011;2196;47.422;9.656;2023-04-23T12:41:52;2.37;;;0.97;;
4365;SDS011;2196;47.422;9.656;2023-04-23T12:44:20;1.33;;;0.90;;
4365;SDS011;2196;47.422;9.656;2023-04-23T12:46:57;1.43;;;0.87;;
4365;SDS011;2196;47.422;9.656;2023-04-23T12:49:27;2.67;;;1.40;;
4365;SDS011;2196;47.422;9.656;2023-04-23T12:51:54;0.87;;;0.70;;
4365;SDS011;2196;47.422;9.656;2023-04-23T12:54:26;0.90;;;0.90;;
4365;SDS011;2196;47.422;9.656;2023-04-23T12:56:55;0.70;;;0.70;;
4365;SDS011;2196;47.422;9.656;2023-04-23T12:59:22;1.00;;;0.63;;
4365;SDS011;2196;47.422;9.656;2023-04-23T13:01:50;0.77;;;0.77;;
4365;SDS011;2196;47.422;9.656;2023-04-23T13:04:17;1.30;;;0.73;;
4365;SDS011;2196;47.422;9.656;2023-04-23T13:06:44;0.87;;;0.87;;
4365;SDS011;2196;47.422;9.656;2023-04-23T13:09:11;0.60;;;0.60;;
4365;SDS011;2196;47.422;9.656;2023-04-23T13:11:39;0.67;;;0.67;;
4365;SDS011;2196;47.422;9.656;2023-04-23T13:14:07;1.13;;;0.93;;
4365;SDS011;2196;47.422;9.656;2023-04-23T13:16:35;0.97;;;0.63;;
4365;SDS011;2196;47.422;9.656;2023-04-23T13:19:02;2.77;;;1.10;;
4365;SDS011;2196;47.422;9.656;2023-04-23T13:21:29;0.60;;;0.60;;
4365;SDS011;2196;47.422;9.656;2023-04-23T13:23:56;0.70;;;0.70;;
4365;SDS011;2196;47.422;9.656;2023-04-23T13:26:23;1.23;;;0.90;;
4365;SDS011;2196;47.422;9.656;2023-04-23T13:28:52;1.13;;;1.00;;
4365;SDS011;2196;47.422;9.656;2023-04-23T13:31:18;0.90;;;0.77;;
4365;SDS011;2196;47.422;9.656;2023-04-23T13:33:45;0.90;;;0.90;;
4365;SDS011;2196;47.422;9.656;2023-04-23T13:36:12;1.10;;;1.10;;
4365;SDS011;2196;47.422;9.656;2023-04-23T13:38:39;1.50;;;1.03;;
4365;SDS011;2196;47.422;9.656;2023-04-23T13:41:06;1.27;;;1.17;;
4365;SDS011;2196;47.422;9.656;2023-04-23T13:43:33;0.80;;;0.60;;
4365;SDS011;2196;47.422;9.656;2023-04-23T13:46:01;1.00;;;0.90;;
4365;SDS011;2196;47.422;9.656;2023-04-23T13:48:29;1.47;;;1.00;;
4365;SDS011;2196;47.422;9.656;2023-04-23T13:50:56;1.90;;;1.07;;
4365;SDS011;2196;47.422;9.656;2023-04-23T13:53:23;1.43;;;1.00;;
4365;SDS011;2196;47.422;9.656;2023-04-23T13:55:51;2.80;;;1.43;;
4365;SDS011;2196;47.422;9.656;2023-04-23T13:58:18;3.50;;;1.00;;
4365;SDS011;2196;47.422;9.656;2023-04-23T14:00:46;1.13;;;1.00;;
4365;SDS011;2196;47.422;9.656;2023-04-23T14:03:14;0.80;;;0.80;;
4365;SDS011;2196;47.422;9.656;2023-04-23T14:05:41;0.77;;;0.77;;
4365;SDS011;2196;47.422;9.656;2023-04-23T14:08:08;0.80;;;0.80;;
4365;SDS011;2196;47.422;9.656;2023-04-23T14:10:35;1.10;;;1.00;;
4365;SDS011;2196;47.422;9.656;2023-04-23T14:13:02;3.60;;;1.20;;
4365;SDS011;2196;47.422;9.656;2023-04-23T14:15:29;0.97;;;0.83;;
4365;SDS011;2196;47.422;9.656;2023-04-23T14:17:56;1.00;;;1.00;;
4365;SDS011;2196;47.422;9.656;2023-04-23T14:20:25;1.63;;;1.20;;
4365;SDS011;2196;47.422;9.656;2023-04-23T14:22:54;1.30;;;1.30;;
4365;SDS011;2196;47.422;9.656;2023-04-23T14:25:23;1.00;;;1.00;;
4365;SDS011;2196;47.422;9.656;2023-04-23T14:27:55;1.33;;;1.30;;
4365;SDS011;2196;47.422;9.656;2023-04-23T14:30:27;1.17;;;1.17;;
4365;SDS011;2196;47.422;9.656;2023-04-23T14:32:54;0.87;;;0.87;;
4365;SDS011;2196;47.422;9.656;2023-04-23T14:35:22;4.30;;;1.20;;
4365;SDS011;2196;47.422;9.656;2023-04-23T14:37:51;1.10;;;1.10;;
4365;SDS011;2196;47.422;9.656;2023-04-23T14:40:18;1.10;;;0.93;;
4365;SDS011;2196;47.422;9.656;2023-04-23T14:42:45;1.60;;;1.50;;
4365;SDS011;2196;47.422;9.656;2023-04-23T14:45:13;3.83;;;1.70;;
4365;SDS011;2196;47.422;9.656;2023-04-23T14:47:42;0.80;;;0.80;;
4365;SDS011;2196;47.422;9.656;2023-04-23T14:50:12;1.93;;;1.00;;
4365;SDS011;2196;47.422;9.656;2023-04-23T14:52:40;1.20;;;1.20;;
4365;SDS011;2196;47.422;9.656;2023-04-23T14:55:10;1.40;;;1.27;;
4365;SDS011;2196;47.422;9.656;2023-04-23T14:57:37;5.70;;;1.50;;
4365;SDS011;2196;47.422;9.656;2023-04-23T15:00:05;1.93;;;0.93;;
4365;SDS011;2196;47.422;9.656;2023-04-23T15:02:37;1.17;;;1.17;;
4365;SDS011;2196;47.422;9.656;2023-04-23T15:05:04;1.57;;;1.30;;
4365;SDS011;2196;47.422;9.656;2023-04-23T15:07:33;1.30;;;1.30;;
4365;SDS011;2196;47.422;9.656;2023-04-23T15:10:00;2.23;;;1.53;;
4365;SDS011;2196;47.422;9.656;2023-04-23T15:12:40;2.43;;;2.23;;
4365;SDS011;2196;47.422;9.656;2023-04-23T15:15:20;2.10;;;1.90;;
4365;SDS011;2196;47.422;9.656;2023-04-23T15:17:51;2.23;;;1.60;;
4365;SDS011;2196;47.422;9.656;2023-04-23T15:20:18;1.83;;;1.73;;
4365;SDS011;2196;47.422;9.656;2023-04-23T15:22:45;1.77;;;1.20;;